createdAt,value
2023-03-11T00:01:12.552Z,100.00
2023-03-11T00:03:41.445Z,100.00
2023-03-11T00:06:10.302Z,100.00
2023-03-11T00:08:41.339Z,100.00
2023-03-11T00:11:10.599Z,100.00
2023-03-11T00:13:41.015Z,100.00
2023-03-11T00:16:10.827Z,100.00
2023-03-11T00:18:39.700Z,100.00
2023-03-11T00:21:16.457Z,100.00
2023-03-11T00:23:46.976Z,100.00
2023-03-11T00:26:16.039Z,100.00
2023-03-11T00:28:44.874Z,100.00
2023-03-11T00:31:14.266Z,100.00
2023-03-11T00:33:43.137Z,100.00
2023-03-11T00:36:24.055Z,100.00
2023-03-11T00:38:54.607Z,100.00
2023-03-11T00:41:23.447Z,100.00
2023-03-11T00:43:52.276Z,100.00
2023-03-11T00:46:21.266Z,100.00
2023-03-11T00:48:51.739Z,100.00
2023-03-11T00:51:20.711Z,100.00
2023-03-11T00:53:49.624Z,100.00
2023-03-11T00:56:19.919Z,100.00
2023-03-11T00:58:48.729Z,100.00
2023-03-11T01:01:20.057Z,100.00
2023-03-11T01:03:49.239Z,100.00
2023-03-11T01:06:18.852Z,100.00
2023-03-11T01:08:47.882Z,100.00
2023-03-11T01:11:16.793Z,100.00
2023-03-11T01:13:48.977Z,100.00
2023-03-11T01:16:17.950Z,100.00
2023-03-11T01:18:46.839Z,100.00
2023-03-11T01:21:15.748Z,100.00
2023-03-11T01:23:44.870Z,100.00
2023-03-11T01:26:14.824Z,100.00
2023-03-11T01:28:43.672Z,100.00
2023-03-11T01:31:14.071Z,100.00
2023-03-11T01:33:42.925Z,100.00
2023-03-11T01:36:11.764Z,100.00
2023-03-11T01:38:40.665Z,100.00
2023-03-11T01:41:11.352Z,100.00
2023-03-11T01:43:58.240Z,100.00
2023-03-11T01:46:37.870Z,100.00
2023-03-11T01:49:07.484Z,100.00
2023-03-11T01:51:42.084Z,100.00
2023-03-11T01:54:15.960Z,100.00
2023-03-11T01:56:46.484Z,100.00
2023-03-11T01:59:20.480Z,100.00
2023-03-11T02:01:58.223Z,100.00
2023-03-11T02:04:28.458Z,100.00
2023-03-11T02:06:58.308Z,100.00
2023-03-11T02:09:27.441Z,100.00
2023-03-11T02:11:57.876Z,100.00
2023-03-11T02:14:30.242Z,100.00
2023-03-11T02:17:02.019Z,100.00
2023-03-11T02:19:40.207Z,100.00
2023-03-11T02:22:11.450Z,100.00
2023-03-11T02:24:46.416Z,100.00
2023-03-11T02:27:19.176Z,100.00
2023-03-11T02:29:51.585Z,100.00
2023-03-11T02:32:22.482Z,100.00
2023-03-11T02:34:51.392Z,100.00
2023-03-11T02:37:20.638Z,100.00
2023-03-11T02:40:17.367Z,100.00
2023-03-11T02:42:47.675Z,100.00
2023-03-11T02:45:20.111Z,100.00
2023-03-11T02:47:50.188Z,100.00
2023-03-11T02:50:20.453Z,100.00
2023-03-11T02:52:50.760Z,100.00
2023-03-11T02:55:20.357Z,100.00
2023-03-11T02:57:50.637Z,100.00
2023-03-11T03:00:20.536Z,100.00
2023-03-11T03:02:58.560Z,100.00
2023-03-11T03:05:29.132Z,100.00
2023-03-11T03:08:00.038Z,100.00
2023-03-11T03:10:30.093Z,100.00
2023-03-11T03:13:00.944Z,100.00
2023-03-11T03:15:30.425Z,100.00
2023-03-11T03:17:59.420Z,100.00
2023-03-11T03:20:29.480Z,100.00
2023-03-11T03:23:02.066Z,100.00
2023-03-11T03:25:33.261Z,100.00
2023-03-11T03:28:07.843Z,100.00
2023-03-11T03:30:40.059Z,100.00
2023-03-11T03:33:09.579Z,100.00
2023-03-11T03:35:42.383Z,100.00
2023-03-11T03:38:17.591Z,100.00
2023-03-11T03:40:50.048Z,100.00
2023-03-11T03:43:23.008Z,100.00
2023-03-11T03:45:57.608Z,100.00
2023-03-11T03:48:28.889Z,100.00
2023-03-11T03:50:58.172Z,100.00
2023-03-11T03:53:27.045Z,100.00
2023-03-11T03:55:56.189Z,100.00
2023-03-11T03:58:26.959Z,100.00
2023-03-11T04:00:58.014Z,100.00
2023-03-11T04:03:27.508Z,100.00
2023-03-11T04:06:11.574Z,100.00
2023-03-11T04:08:41.048Z,100.00
2023-03-11T04:11:11.648Z,100.00
2023-03-11T04:13:44.694Z,100.00
2023-03-11T04:16:18.425Z,100.00
2023-03-11T04:18:47.440Z,100.00
2023-03-11T04:21:17.033Z,100.00
2023-03-11T04:23:46.701Z,100.00
2023-03-11T04:26:17.879Z,100.00
2023-03-11T04:28:48.208Z,100.00
2023-03-11T04:31:17.769Z,100.00
2023-03-11T04:33:46.659Z,100.00
2023-03-11T04:36:15.668Z,100.00
2023-03-11T04:38:45.886Z,100.00
2023-03-11T04:41:16.492Z,100.00
2023-03-11T04:43:48.301Z,100.00
2023-03-11T04:46:17.438Z,100.00
2023-03-11T04:48:46.659Z,100.00
2023-03-11T04:51:15.667Z,100.00
2023-03-11T04:53:44.828Z,100.00
2023-03-11T04:56:14.335Z,100.00
2023-03-11T04:58:43.395Z,100.00
2023-03-11T05:01:14.024Z,100.00
2023-03-11T05:03:43.461Z,100.00
2023-03-11T05:06:13.553Z,100.00
2023-03-11T05:08:42.760Z,100.00
2023-03-11T05:11:11.850Z,100.00
2023-03-11T05:13:41.267Z,100.00
2023-03-11T05:16:10.544Z,100.00
2023-03-11T05:18:41.078Z,100.00
2023-03-11T05:21:10.588Z,100.00
2023-03-11T05:23:39.696Z,100.00
2023-03-11T05:26:08.920Z,100.00
2023-03-11T05:28:38.205Z,100.00
2023-03-11T05:31:10.124Z,100.00
2023-03-11T05:33:41.956Z,100.00
2023-03-11T05:36:14.306Z,100.00
2023-03-11T05:38:46.060Z,100.00
2023-03-11T05:41:16.583Z,100.00
2023-03-11T05:43:46.456Z,100.00
2023-03-11T05:46:16.651Z,100.00
2023-03-11T05:48:47.545Z,100.00
2023-03-11T05:51:16.906Z,100.00
2023-03-11T05:53:49.858Z,100.00
2023-03-11T05:56:30.395Z,100.00
2023-03-11T05:58:59.787Z,100.00
2023-03-11T06:01:32.072Z,100.00
2023-03-11T06:04:03.372Z,100.00
2023-03-11T06:06:32.712Z,100.00
2023-03-11T06:09:04.175Z,100.00
2023-03-11T06:11:33.264Z,100.00
2023-03-11T06:14:02.262Z,100.00
2023-03-11T06:16:31.529Z,100.00
2023-03-11T06:19:05.162Z,100.00
2023-03-11T06:21:38.923Z,100.00
2023-03-11T06:24:08.684Z,100.00
2023-03-11T06:26:37.706Z,100.00
2023-03-11T06:29:08.830Z,100.00
2023-03-11T06:31:37.769Z,100.00
2023-03-11T06:34:12.745Z,100.00
2023-03-11T06:36:41.855Z,100.00
2023-03-11T06:39:14.113Z,100.00
2023-03-11T06:41:43.655Z,100.00
2023-03-11T06:44:14.261Z,100.00
2023-03-11T06:46:44.276Z,100.00
2023-03-11T06:49:15.495Z,100.00
2023-03-11T06:51:44.831Z,100.00
2023-03-11T06:54:15.884Z,100.00
2023-03-11T06:56:44.740Z,100.00
2023-03-11T06:59:16.148Z,100.00
2023-03-11T07:01:46.475Z,100.00
2023-03-11T07:04:17.403Z,100.00
2023-03-11T07:06:46.430Z,100.00
2023-03-11T07:09:22.386Z,100.00
2023-03-11T07:11:51.308Z,100.00
2023-03-11T07:14:26.686Z,100.00
2023-03-11T07:16:58.304Z,100.00
2023-03-11T07:19:36.913Z,100.00
2023-03-11T07:22:05.809Z,100.00
2023-03-11T07:24:34.707Z,100.00
2023-03-11T07:27:03.774Z,100.00
2023-03-11T07:29:32.615Z,100.00
2023-03-11T07:32:02.105Z,100.00
2023-03-11T07:34:30.979Z,100.00
2023-03-11T07:37:02.109Z,100.00
2023-03-11T07:39:31.141Z,100.00
2023-03-11T07:42:00.072Z,99.93
2023-03-11T07:44:36.884Z,100.00
2023-03-11T07:47:06.728Z,100.00
2023-03-11T07:49:37.454Z,100.00
2023-03-11T07:52:08.182Z,100.00
2023-03-11T07:54:37.149Z,100.00
2023-03-11T07:57:07.479Z,100.00
2023-03-11T07:59:36.359Z,100.00
2023-03-11T08:02:05.432Z,100.00
2023-03-11T08:04:34.442Z,100.00
2023-03-11T08:07:04.023Z,100.00
2023-03-11T08:09:35.778Z,100.00
2023-03-11T08:12:05.351Z,100.00
2023-03-11T08:14:34.247Z,100.00
2023-03-11T08:17:03.664Z,100.00
2023-03-11T08:19:32.749Z,100.00
2023-03-11T08:22:03.270Z,100.00
2023-03-11T08:24:32.182Z,100.00
2023-03-11T08:27:03.280Z,100.00
2023-03-11T08:29:32.170Z,100.00
2023-03-11T08:32:01.158Z,100.00
2023-03-11T08:34:30.035Z,100.00
2023-03-11T08:36:58.974Z,100.00
2023-03-11T08:39:27.752Z,100.00
2023-03-11T08:41:57.215Z,100.00
2023-03-11T08:44:27.557Z,100.00
2023-03-11T08:46:56.492Z,100.00
2023-03-11T08:49:25.425Z,100.00
2023-03-11T08:51:54.645Z,100.00
2023-03-11T08:54:23.477Z,100.00
2023-03-11T08:56:52.266Z,100.00
2023-03-11T08:59:21.726Z,100.00
2023-03-11T09:01:51.952Z,100.00
2023-03-11T09:04:20.796Z,100.00
2023-03-11T09:06:50.039Z,100.00
2023-03-11T09:09:20.433Z,100.00
2023-03-11T09:11:50.022Z,100.00
2023-03-11T09:14:18.864Z,100.00
2023-03-11T09:16:47.653Z,100.00
2023-03-11T09:19:17.871Z,100.00
2023-03-11T09:21:46.752Z,98.48
2023-03-11T09:24:15.611Z,87.10
2023-03-11T09:26:44.436Z,91.14
2023-03-11T09:29:13.293Z,90.62
2023-03-11T09:31:42.450Z,99.42
2023-03-11T09:34:13.950Z,100.00
2023-03-11T09:36:45.834Z,100.00
2023-03-11T09:39:14.915Z,98.56
2023-03-11T09:41:57.854Z,96.01
2023-03-11T09:44:35.001Z,100.00
2023-03-11T09:47:42.236Z,91.72
2023-03-11T09:50:18.960Z,81.89
2023-03-11T09:52:57.329Z,74.20
2023-03-11T09:55:33.827Z,73.17
2023-03-11T09:58:09.945Z,83.25
2023-03-11T10:00:39.174Z,85.92
2023-03-11T10:03:17.919Z,90.33
2023-03-11T10:05:47.844Z,87.49
2023-03-11T10:08:26.686Z,71.25
2023-03-11T10:11:07.201Z,60.83
2023-03-11T10:13:42.672Z,58.46
2023-03-11T10:16:21.186Z,59.42
2023-03-11T10:19:02.120Z,58.34
2023-03-11T10:21:42.824Z,58.55
2023-03-11T10:24:34.272Z,51.72
2023-03-11T10:27:09.656Z,55.31
2023-03-11T10:29:49.428Z,56.35
2023-03-11T10:32:25.458Z,55.09
2023-03-11T10:34:59.383Z,57.74
2023-03-11T10:37:47.961Z,56.82
2023-03-11T10:40:29.551Z,55.74
2023-03-11T10:43:02.045Z,51.59
2023-03-11T10:45:37.786Z,53.21
2023-03-11T10:48:11.127Z,54.66
2023-03-11T10:50:50.837Z,53.01
2023-03-11T10:53:21.297Z,53.57
2023-03-11T10:55:53.025Z,53.79
2023-03-11T10:58:23.888Z,54.41
2023-03-11T11:01:05.137Z,59.50
2023-03-11T11:03:34.985Z,68.55
2023-03-11T11:06:06.729Z,67.32
2023-03-11T11:08:35.671Z,52.49
2023-03-11T11:11:21.432Z,53.47
2023-03-11T11:13:57.904Z,52.86
2023-03-11T11:16:27.515Z,49.62
2023-03-11T11:19:04.985Z,49.82
2023-03-11T11:21:37.273Z,50.62
2023-03-11T11:24:15.633Z,50.59
2023-03-11T11:27:04.051Z,50.14
2023-03-11T11:29:34.729Z,51.00
2023-03-11T11:32:19.241Z,47.04
2023-03-11T11:35:02.226Z,47.13
2023-03-11T11:37:35.016Z,47.28
2023-03-11T11:40:11.665Z,47.37
2023-03-11T11:42:46.883Z,46.60
2023-03-11T11:45:22.987Z,47.96
2023-03-11T11:47:56.945Z,49.15
2023-03-11T11:50:32.990Z,51.59
2023-03-11T11:53:12.307Z,47.83
2023-03-11T11:55:45.767Z,46.51
2023-03-11T11:58:16.305Z,48.80
2023-03-11T12:00:54.006Z,49.29
2023-03-11T12:03:43.666Z,48.05
2023-03-11T12:06:23.278Z,51.64
2023-03-11T12:09:05.531Z,59.42
2023-03-11T12:11:41.900Z,63.47
2023-03-11T12:14:20.287Z,62.62
2023-03-11T12:16:57.005Z,67.61
2023-03-11T12:19:36.393Z,78.19
2023-03-11T12:22:47.606Z,94.34
2023-03-11T12:25:32.892Z,96.93
2023-03-11T12:28:10.872Z,97.57
2023-03-11T12:30:45.501Z,100.00
2023-03-11T12:33:19.163Z,100.00
2023-03-11T12:35:56.056Z,100.00
2023-03-11T12:38:32.886Z,96.61
2023-03-11T12:41:05.674Z,97.71
2023-03-11T12:44:11.552Z,83.68
2023-03-11T12:47:30.836Z,79.88
2023-03-11T12:50:33.283Z,73.06
2023-03-11T12:53:03.964Z,69.49
2023-03-11T12:55:35.600Z,72.72
2023-03-11T12:58:38.624Z,61.01
2023-03-11T13:01:21.330Z,58.51
2023-03-11T13:04:03.746Z,61.17
2023-03-11T13:06:56.747Z,60.57
2023-03-11T13:09:27.427Z,59.29
2023-03-11T13:11:56.279Z,70.73
2023-03-11T13:14:31.170Z,61.27
2023-03-11T13:17:26.306Z,74.41
2023-03-11T13:19:56.571Z,81.98
2023-03-11T13:23:16.279Z,96.98
2023-03-11T13:26:17.538Z,89.97
2023-03-11T13:28:58.216Z,85.51
2023-03-11T13:31:45.433Z,92.96
2023-03-11T13:34:18.900Z,98.11
2023-03-11T13:36:58.729Z,97.11
2023-03-11T13:39:47.070Z,93.97
2023-03-11T13:42:25.231Z,90.90
2023-03-11T13:44:54.424Z,100.00
2023-03-11T13:47:24.560Z,100.00
2023-03-11T13:50:00.908Z,100.00
2023-03-11T13:52:33.990Z,100.00
2023-03-11T13:55:06.549Z,100.00
2023-03-11T13:57:38.141Z,99.42
2023-03-11T14:00:17.153Z,91.51
2023-03-11T14:02:51.749Z,95.58
2023-03-11T14:05:24.368Z,86.67
2023-03-11T14:07:53.643Z,89.00
2023-03-11T14:10:26.730Z,90.57
2023-03-11T14:13:15.380Z,99.40
2023-03-11T14:15:49.467Z,91.14
2023-03-11T14:18:35.477Z,95.07
2023-03-11T14:21:06.195Z,93.22
2023-03-11T14:23:37.321Z,94.20
2023-03-11T14:26:08.743Z,92.26
2023-03-11T14:28:45.126Z,87.24
2023-03-11T14:31:26.859Z,93.10
2023-03-11T14:33:57.670Z,88.43
2023-03-11T14:36:26.541Z,100.00
2023-03-11T14:38:55.396Z,100.00
2023-03-11T14:41:24.386Z,100.00
2023-03-11T14:43:55.928Z,100.00
2023-03-11T14:46:30.812Z,100.00
2023-03-11T14:49:01.987Z,100.00
2023-03-11T14:51:35.128Z,100.00
2023-03-11T14:54:08.760Z,100.00
2023-03-11T14:56:41.243Z,100.00
2023-03-11T14:59:16.409Z,100.00
2023-03-11T15:01:46.675Z,100.00
2023-03-11T15:04:31.533Z,100.00
2023-03-11T15:07:02.056Z,100.00
2023-03-11T15:09:31.250Z,100.00
2023-03-11T15:12:02.092Z,100.00
2023-03-11T15:14:35.318Z,100.00
2023-03-11T15:17:33.961Z,100.00
2023-03-11T15:20:23.657Z,100.00
2023-03-11T15:22:58.304Z,100.00
2023-03-11T15:25:28.254Z,100.00
2023-03-11T15:27:57.308Z,100.00
2023-03-11T15:30:29.980Z,100.00
2023-03-11T15:32:59.943Z,100.00
2023-03-11T15:35:29.949Z,100.00
2023-03-11T15:38:25.362Z,100.00
2023-03-11T15:40:56.086Z,100.00
2023-03-11T15:43:28.735Z,100.00
2023-03-11T15:46:01.239Z,100.00
2023-03-11T15:48:31.424Z,100.00
2023-03-11T15:51:01.565Z,100.00
2023-03-11T15:53:31.569Z,100.00
2023-03-11T15:56:07.811Z,100.00
2023-03-11T15:58:38.777Z,100.00
2023-03-11T16:01:09.022Z,100.00
2023-03-11T16:03:39.131Z,100.00
2023-03-11T16:06:08.233Z,100.00
2023-03-11T16:08:37.071Z,100.00
2023-03-11T16:11:06.696Z,100.00
2023-03-11T16:13:35.525Z,100.00
2023-03-11T16:16:04.889Z,100.00
2023-03-11T16:18:35.827Z,100.00
2023-03-11T16:21:10.080Z,100.00
2023-03-11T16:23:51.247Z,100.00
2023-03-11T16:26:23.645Z,100.00
2023-03-11T16:28:52.484Z,100.00
2023-03-11T16:31:21.372Z,100.00
2023-03-11T16:33:51.940Z,100.00
2023-03-11T16:36:20.846Z,100.00
2023-03-11T16:38:51.433Z,100.00
2023-03-11T16:41:20.737Z,100.00
2023-03-11T16:43:49.573Z,100.00
2023-03-11T16:46:18.364Z,100.00
2023-03-11T16:48:47.240Z,100.00
2023-03-11T16:51:17.471Z,100.00
2023-03-11T16:53:46.358Z,100.00
2023-03-11T16:56:15.361Z,100.00
2023-03-11T16:58:47.105Z,100.00
2023-03-11T17:01:17.031Z,100.00
2023-03-11T17:03:48.726Z,100.00
2023-03-11T17:06:20.184Z,100.00
2023-03-11T17:08:50.678Z,100.00
2023-03-11T17:11:21.267Z,100.00
2023-03-11T17:13:50.842Z,100.00
2023-03-11T17:16:19.802Z,100.00
2023-03-11T17:18:48.719Z,100.00
2023-03-11T17:21:19.560Z,100.00
2023-03-11T17:23:48.454Z,100.00
2023-03-11T17:26:18.359Z,100.00
2023-03-11T17:28:48.268Z,100.00
2023-03-11T17:31:17.973Z,100.00
2023-03-11T17:33:47.321Z,100.00
2023-03-11T17:36:19.022Z,100.00
2023-03-11T17:38:48.707Z,100.00
2023-03-11T17:41:18.657Z,100.00
2023-03-11T17:43:50.329Z,100.00
2023-03-11T17:46:22.494Z,100.00
2023-03-11T17:48:51.994Z,100.00
2023-03-11T17:51:24.151Z,100.00
2023-03-11T17:53:55.696Z,100.00
2023-03-11T17:56:24.916Z,100.00
2023-03-11T17:58:53.804Z,100.00
2023-03-11T18:01:24.162Z,100.00
2023-03-11T18:03:53.375Z,100.00
2023-03-11T18:06:24.388Z,100.00
2023-03-11T18:08:53.605Z,100.00
2023-03-11T18:11:25.761Z,100.00
2023-03-11T18:13:55.299Z,100.00
2023-03-11T18:16:25.868Z,100.00
2023-03-11T18:18:55.603Z,100.00
2023-03-11T18:21:27.301Z,100.00
2023-03-11T18:23:57.206Z,100.00
2023-03-11T18:26:27.670Z,100.00
2023-03-11T18:28:57.302Z,100.00
2023-03-11T18:31:27.327Z,100.00
2023-03-11T18:33:58.108Z,100.00
2023-03-11T18:36:30.368Z,100.00
2023-03-11T18:39:00.480Z,100.00
2023-03-11T18:41:32.332Z,100.00
2023-03-11T18:44:02.138Z,100.00
2023-03-11T18:46:32.654Z,100.00
2023-03-11T18:49:03.565Z,100.00
2023-03-11T18:51:34.238Z,100.00
2023-03-11T18:54:04.200Z,100.00
2023-03-11T18:56:33.015Z,100.00
2023-03-11T18:59:02.585Z,100.00
2023-03-11T19:01:31.943Z,100.00
2023-03-11T19:04:01.157Z,100.00
2023-03-11T19:06:30.663Z,100.00
2023-03-11T19:09:01.146Z,100.00
2023-03-11T19:11:30.012Z,100.00
2023-03-11T19:14:00.069Z,100.00
2023-03-11T19:16:29.696Z,100.00
2023-03-11T19:18:58.782Z,100.00
2023-03-11T19:21:27.634Z,100.00
2023-03-11T19:24:00.111Z,100.00
2023-03-11T19:26:44.229Z,100.00
2023-03-11T19:29:14.805Z,100.00
2023-03-11T19:31:45.411Z,100.00
2023-03-11T19:34:14.332Z,100.00
2023-03-11T19:36:43.207Z,100.00
2023-03-11T19:39:12.041Z,100.00
2023-03-11T19:41:42.300Z,100.00
2023-03-11T19:44:11.125Z,100.00
2023-03-11T19:46:40.090Z,100.00
2023-03-11T19:49:09.032Z,100.00
2023-03-11T19:51:48.997Z,100.00
2023-03-11T19:54:18.779Z,100.00
2023-03-11T19:56:49.165Z,100.00
2023-03-11T19:59:17.997Z,100.00
2023-03-11T20:01:47.009Z,100.00
2023-03-11T20:04:16.512Z,100.00
2023-03-11T20:06:46.205Z,100.00
2023-03-11T20:09:16.211Z,100.00
2023-03-11T20:11:46.356Z,100.00
2023-03-11T20:14:16.797Z,100.00
2023-03-11T20:16:45.862Z,100.00
2023-03-11T20:19:14.853Z,100.00
2023-03-11T20:21:45.941Z,100.00
2023-03-11T20:24:15.229Z,100.00
2023-03-11T20:26:44.264Z,100.00
2023-03-11T20:29:13.246Z,100.00
2023-03-11T20:31:44.642Z,100.00
2023-03-11T20:34:13.915Z,100.00
2023-03-11T20:36:43.084Z,100.00
2023-03-11T20:39:12.001Z,100.00
2023-03-11T20:41:42.193Z,100.00
2023-03-11T20:44:14.306Z,100.00
2023-03-11T20:46:45.029Z,100.00
2023-03-11T20:49:14.071Z,100.00
2023-03-11T20:51:44.041Z,100.00
2023-03-11T20:54:13.000Z,100.00
2023-03-11T20:56:42.739Z,100.00
2023-03-11T20:59:14.209Z,100.00
2023-03-11T21:01:45.879Z,100.00
2023-03-11T21:04:16.710Z,100.00
2023-03-11T21:06:45.806Z,100.00
2023-03-11T21:09:15.853Z,100.00
2023-03-11T21:11:44.966Z,100.00
2023-03-11T21:14:16.166Z,100.00
2023-03-11T21:16:46.829Z,100.00
2023-03-11T21:19:15.943Z,100.00
2023-03-11T21:21:44.998Z,100.00
2023-03-11T21:24:14.062Z,100.00
2023-03-11T21:26:43.366Z,100.00
2023-03-11T21:29:12.460Z,100.00
2023-03-11T21:31:41.472Z,100.00
2023-03-11T21:34:12.395Z,98.23
2023-03-11T21:36:41.556Z,85.61
2023-03-11T21:39:10.719Z,94.56
2023-03-11T21:41:40.040Z,96.68
2023-03-11T21:44:09.104Z,94.88
2023-03-11T21:46:38.102Z,86.02
2023-03-11T21:49:07.105Z,68.45
2023-03-11T21:51:37.373Z,66.18
2023-03-11T21:54:06.477Z,65.16
2023-03-11T21:56:35.396Z,70.84
2023-03-11T21:59:05.013Z,73.20
2023-03-11T22:01:34.190Z,75.53
2023-03-11T22:04:03.972Z,77.05
2023-03-11T22:06:33.557Z,74.90
2023-03-11T22:09:05.027Z,75.32
2023-03-11T22:11:34.091Z,73.98
2023-03-11T22:14:03.853Z,75.00
2023-03-11T22:16:32.653Z,72.67
2023-03-11T22:19:02.150Z,88.78
2023-03-11T22:21:31.056Z,92.13
2023-03-11T22:24:00.013Z,97.61
2023-03-11T22:26:30.263Z,99.71
2023-03-11T22:28:59.058Z,100.00
2023-03-11T22:31:27.942Z,99.22
2023-03-11T22:33:56.800Z,99.88
2023-03-11T22:36:25.730Z,100.00
2023-03-11T22:38:54.545Z,100.00
2023-03-11T22:41:23.464Z,100.00
2023-03-11T22:43:53.698Z,100.00
2023-03-11T22:46:22.673Z,100.00
2023-03-11T22:48:51.510Z,100.00
2023-03-11T22:51:20.425Z,100.00
2023-03-11T22:53:49.308Z,100.00
2023-03-11T22:56:19.267Z,100.00
2023-03-11T22:58:48.058Z,100.00
2023-03-11T23:01:18.527Z,100.00
2023-03-11T23:03:47.665Z,100.00
2023-03-11T23:06:18.460Z,100.00
2023-03-11T23:08:48.008Z,100.00
2023-03-11T23:11:21.151Z,100.00
2023-03-11T23:13:50.216Z,100.00
2023-03-11T23:16:22.575Z,100.00
2023-03-11T23:18:53.150Z,100.00
2023-03-11T23:21:24.805Z,100.00
2023-03-11T23:23:54.295Z,100.00
2023-03-11T23:26:24.101Z,100.00
2023-03-11T23:28:53.763Z,100.00
2023-03-11T23:31:26.102Z,100.00
2023-03-11T23:33:55.356Z,100.00
2023-03-11T23:36:27.093Z,100.00
2023-03-11T23:38:55.890Z,100.00
2023-03-11T23:41:24.940Z,100.00
2023-03-11T23:43:53.806Z,100.00
2023-03-11T23:46:24.092Z,100.00
2023-03-11T23:48:52.883Z,100.00
2023-03-11T23:51:21.790Z,100.00
2023-03-11T23:53:50.593Z,100.00
2023-03-11T23:56:19.777Z,100.00
2023-03-11T23:58:48.718Z,100.00
